Time;durP1;ratioP1;P1;durP2;ratioP2;P2;SDS_P1;SDS_P2;PMS_P1;PMS_P2;Temp;Humidity;BMP_temperature;BMP_pressure;BME280_temperature;BME280_humidity;BME280_pressure;Samples;Min_cycle;Max_cycle;Signal;HPM_P1;HPM_P2
2023/01/27 00:00:43;;;;;;;36.85;8.13;;;;;;;3.01;100.00;102373.53;5112885;28;20026;-52
2023/01/27 00:03:12;;;;;;;34.25;7.88;;;;;;;3.00;100.00;102372.66;5112744;28;20039;-52
2023/01/27 00:05:38;;;;;;;38.08;7.55;;;;;;;3.00;100.00;102367.56;5112975;28;20040;-53
2023/01/27 00:08:03;;;;;;;34.42;7.68;;;;;;;2.99;100.00;102370.88;5113434;28;20071;-52
2023/01/27 00:10:28;;;;;;;40.47;8.85;;;;;;;2.98;100.00;102358.91;5112470;28;20027;-51
2023/01/27 00:15:38;;;;;;;37.55;7.63;;;;;;;2.94;100.00;102357.75;5113038;28;20421;-52
2023/01/27 00:18:04;;;;;;;27.35;7.53;;;;;;;2.92;100.00;102359.28;5112763;28;20471;-52
2023/01/27 00:26:05;;;;;;;35.85;7.78;;;;;;;2.83;100.00;102368.69;5113010;28;20039;-52
2023/01/27 00:28:30;;;;;;;32.42;7.97;;;;;;;2.79;100.00;102361.56;5112930;28;20024;-52
2023/01/27 00:30:56;;;;;;;34.47;8.30;;;;;;;2.78;100.00;102357.22;5112816;28;20024;-52
2023/01/27 00:33:25;;;;;;;48.65;8.20;;;;;;;2.75;100.00;102354.38;5113056;28;20056;-52
2023/01/27 00:36:03;;;;;;;34.10;8.15;;;;;;;2.73;100.00;102364.44;5113044;28;20024;-52
2023/01/27 00:38:30;;;;;;;38.03;9.02;;;;;;;2.72;100.00;102366.88;5112231;28;20024;-53
2023/01/27 00:41:14;;;;;;;30.98;8.10;;;;;;;2.69;100.00;102361.53;5113066;28;20102;-52
2023/01/27 00:43:39;;;;;;;35.38;8.57;;;;;;;2.68;100.00;102357.19;5112729;28;20080;-52
2023/01/27 00:46:05;;;;;;;31.77;8.85;;;;;;;2.66;100.00;102363.78;5112462;28;20031;-52
2023/01/27 00:48:30;;;;;;;31.17;8.27;;;;;;;2.65;100.00;102373.09;5112453;28;20020;-56
2023/01/27 00:50:56;;;;;;;35.92;9.50;;;;;;;2.63;100.00;102374.59;5113209;28;20050;-54
2023/01/27 00:53:21;;;;;;;47.47;9.48;;;;;;;2.62;100.00;102371.19;5112433;28;20023;-55
2023/01/27 00:55:46;;;;;;;37.65;9.23;;;;;;;2.62;100.00;102372.81;5112451;28;20024;-54
2023/01/27 00:58:12;;;;;;;45.97;9.98;;;;;;;2.60;100.00;102380.31;5113069;28;20030;-55
2023/01/27 01:00:37;;;;;;;30.48;8.82;;;;;;;2.59;100.00;102367.47;5112044;28;20058;-53
2023/01/27 01:03:02;;;;;;;39.08;9.25;;;;;;;2.56;100.00;102373.19;5112470;28;20040;-54
2023/01/27 01:05:28;;;;;;;36.60;9.95;;;;;;;2.54;100.00;102379.78;5112701;28;20023;-55
2023/01/27 01:07:53;;;;;;;40.75;9.43;;;;;;;2.53;100.00;102380.56;5112538;28;20030;-54
2023/01/27 01:10:18;;;;;;;40.58;10.05;;;;;;;2.53;100.00;102374.56;5112623;28;20047;-55
2023/01/27 01:12:44;;;;;;;38.13;10.38;;;;;;;2.53;100.00;102377.09;5112548;28;20034;-54
2023/01/27 01:15:09;;;;;;;37.70;9.85;;;;;;;2.52;100.00;102380.41;5112140;28;20016;-54
2023/01/27 01:17:35;;;;;;;32.83;10.43;;;;;;;2.51;100.00;102384.63;5112131;28;20031;-54
2023/01/27 01:20:00;;;;;;;35.50;11.07;;;;;;;2.51;100.00;102387.16;5112832;28;20020;-55
2023/01/27 01:22:25;;;;;;;35.15;9.98;;;;;;;2.50;100.00;102387.03;5111840;28;20069;-54
2023/01/27 01:24:50;;;;;;;38.10;10.82;;;;;;;2.47;100.00;102380.03;5112422;28;20039;-53
2023/01/27 01:27:16;;;;;;;35.40;10.73;;;;;;;2.46;100.00;102385.88;5113900;28;20047;-54
2023/01/27 01:29:41;;;;;;;34.67;10.95;;;;;;;2.45;100.00;102399.34;5115856;28;20047;-52
2023/01/27 01:32:08;;;;;;;44.83;11.48;;;;;;;2.44;100.00;102403.56;5116332;28;20028;-51
2023/01/27 01:34:34;;;;;;;35.95;11.07;;;;;;;2.44;100.00;102397.56;5115500;28;20024;-52
2023/01/27 01:36:59;;;;;;;36.30;11.60;;;;;;;2.43;100.00;102400.88;5116078;28;20087;-52
2023/01/27 01:39:25;;;;;;;40.13;12.50;;;;;;;2.42;100.00;102409.28;5116172;28;20020;-52
2023/01/27 01:41:50;;;;;;;46.17;12.40;;;;;;;2.41;100.00;102403.25;5115378;28;20019;-51
2023/01/27 01:44:33;;;;;;;46.70;12.70;;;;;;;2.44;100.00;102402.63;5115617;28;20032;-52
2023/01/27 01:46:59;;;;;;;37.45;12.30;;;;;;;2.40;100.00;102404.06;5116098;28;20027;-51
2023/01/27 01:49:33;;;;;;;42.65;12.88;;;;;;;2.40;100.00;102408.22;5115413;28;20024;-52
2023/01/27 01:52:06;;;;;;;37.45;12.18;;;;;;;2.37;100.00;102400.34;5115687;28;20087;-52
2023/01/27 01:54:38;;;;;;;33.85;12.40;;;;;;;2.36;100.00;102396.88;5115711;28;20024;-52
2023/01/27 01:57:17;;;;;;;31.40;12.35;;;;;;;2.36;100.00;102398.53;5115195;28;20020;-52
2023/01/27 01:59:51;;;;;;;39.20;13.10;;;;;;;2.34;100.00;102400.06;5115161;28;20360;-52
2023/01/27 02:02:22;;;;;;;35.03;12.82;;;;;;;2.32;100.00;102405.00;5115156;28;20110;-53
2023/01/27 02:04:56;;;;;;;34.78;12.43;;;;;;;2.30;100.00;102409.97;5115066;28;20028;-55
2023/01/27 02:07:25;;;;;;;35.42;13.57;;;;;;;2.29;100.00;102405.63;5115483;28;20011;-53
2023/01/27 02:09:53;;;;;;;37.70;13.40;;;;;;;2.28;100.00;102403.84;5115134;28;20045;-53
2023/01/27 02:12:18;;;;;;;;;;;;;;;2.38;100.00;102402.13;5115872;28;20106;-53
2023/01/27 02:14:43;;;;;;;35.83;13.20;;;;;;;2.27;100.00;102399.53;5115192;28;20045;-53
2023/01/27 02:17:12;;;;;;;37.72;13.80;;;;;;;2.25;100.00;102411.22;5114926;28;20618;-52
2023/01/27 02:20:14;;;;;;;28.52;13.30;;;;;;;2.29;100.00;102402.22;5114922;28;20036;-53
2023/01/27 02:23:18;;;;;;;33.60;12.93;;;;;;;2.27;100.00;102397.00;5114998;28;20023;-53
2023/01/27 02:25:49;;;;;;;27.90;12.88;;;;;;;2.24;100.00;102409.41;5114560;28;20034;-52
2023/01/27 02:28:15;;;;;;;31.80;13.23;;;;;;;2.24;100.00;102400.91;5115266;28;20024;-53
2023/01/27 02:30:40;;;;;;;35.58;13.35;;;;;;;2.24;100.00;102417.06;5114365;28;20030;-52
2023/01/27 02:33:11;;;;;;;42.75;13.52;;;;;;;2.24;100.00;102416.16;5114778;28;20026;-52
2023/01/27 02:35:54;;;;;;;39.53;15.05;;;;;;;2.24;100.00;102424.69;5114766;28;20073;-52
2023/01/27 02:38:20;;;;;;;36.50;14.30;;;;;;;2.22;100.00;102415.13;5114271;28;20027;-52
2023/01/27 02:40:53;;;;;;;41.28;15.18;;;;;;;2.22;100.00;102415.13;5114525;28;20064;-52
2023/01/27 02:43:18;;;;;;;40.00;14.63;;;;;;;2.21;100.00;102424.41;5114948;28;20028;-52
2023/01/27 02:45:47;;;;;;;39.05;14.43;;;;;;;2.21;100.00;102423.50;5114125;28;20372;-52
2023/01/27 02:48:13;;;;;;;31.83;14.50;;;;;;;2.20;100.00;102417.53;5114537;28;20035;-52
2023/01/27 02:50:38;;;;;;;38.85;15.35;;;;;;;2.19;100.00;102425.91;5114579;28;20047;-52
2023/01/27 02:53:03;;;;;;;33.83;16.20;;;;;;;2.18;100.00;102421.59;5114135;28;20055;-52
2023/01/27 02:55:29;;;;;;;45.42;15.80;;;;;;;2.17;100.00;102419.81;5113985;28;20020;-53
2023/01/27 02:57:54;;;;;;;37.85;15.63;;;;;;;2.16;100.00;102415.50;5114647;28;20028;-53
2023/01/27 03:00:20;;;;;;;34.72;16.40;;;;;;;2.15;100.00;102413.69;5113805;28;20037;-52
2023/01/27 03:02:45;;;;;;;42.30;17.27;;;;;;;2.13;100.00;102425.38;5113790;28;20050;-52
2023/01/27 03:05:10;;;;;;;39.92;17.63;;;;;;;2.13;100.00;102427.91;5114385;28;20467;-53
2023/01/27 03:07:35;;;;;;;39.70;17.50;;;;;;;2.12;100.00;102431.25;5113447;28;20106;-53
2023/01/27 03:10:01;;;;;;;42.22;19.35;;;;;;;2.11;100.00;102437.06;5114307;28;20024;-53
2023/01/27 03:12:26;;;;;;;39.42;18.60;;;;;;;2.11;100.00;102439.63;5114108;28;20023;-52
2023/01/27 03:20:21;;;;;;;50.38;20.67;;;;;;;2.07;100.00;102430.81;5113949;28;20038;-52
2023/01/27 03:22:48;;;;;;;46.58;19.90;;;;;;;2.06;100.00;102433.22;5113621;28;20102;-52
2023/01/27 03:25:14;;;;;;;48.63;20.23;;;;;;;2.07;100.00;102438.44;5114140;28;20145;-53
2023/01/27 03:27:39;;;;;;;49.05;22.13;;;;;;;2.07;100.00;102435.03;5113239;28;20611;-53
2023/01/27 03:30:06;;;;;;;46.10;21.00;;;;;;;2.06;100.00;102428.16;5113714;28;20023;-52
2023/01/27 03:32:31;;;;;;;46.50;21.58;;;;;;;2.04;100.00;102430.56;5113441;28;20106;-52
2023/01/27 03:34:57;;;;;;;49.90;21.63;;;;;;;2.02;100.00;102434.59;5113546;28;20024;-53
2023/01/27 03:48:32;;;;;;;50.58;23.48;;;;;;;2.04;100.00;102450.91;5113299;28;20486;-52
2023/01/27 03:50:59;;;;;;;51.30;23.45;;;;;;;2.03;100.00;102450.75;5112882;28;20047;-53
2023/01/27 03:53:24;;;;;;;52.72;24.17;;;;;;;2.02;100.00;102451.53;5113359;28;20363;-53
2023/01/27 03:55:49;;;;;;;55.80;23.58;;;;;;;2.01;100.00;102453.16;5112969;28;20026;-52
2023/01/27 03:58:27;;;;;;;52.50;23.60;;;;;;;2.00;100.00;102465.72;5113444;28;20026;-53
2023/01/27 04:00:57;;;;;;;55.38;25.50;;;;;;;1.98;100.00;102458.84;5113468;28;20383;-52
2023/01/27 04:08:59;;;;;;;59.60;25.92;;;;;;;1.97;100.00;102453.63;5093095;28;20035;-52
2023/01/27 04:14:09;;;;;;;57.78;26.40;;;;;;;1.96;100.00;102464.56;5093500;28;20498;-52
2023/01/27 04:16:35;;;;;;;71.47;28.42;;;;;;;1.96;100.00;102462.94;5092097;28;20024;-53
2023/01/27 04:19:02;;;;;;;68.60;28.90;;;;;;;1.96;100.00;102456.94;5092823;28;20032;-53
2023/01/27 04:21:28;;;;;;;64.70;29.48;;;;;;;1.96;100.00;102455.28;5092725;28;20030;-53
2023/01/27 04:23:54;;;;;;;72.70;28.92;;;;;;;1.95;100.00;102455.13;5092348;28;20031;-52
2023/01/27 04:26:20;;;;;;;74.82;30.42;;;;;;;1.92;100.00;102445.56;5092671;28;20024;-52
2023/01/27 04:28:46;;;;;;;62.90;29.92;;;;;;;1.94;100.00;102456.78;5092487;28;20545;-52
2023/01/27 04:31:12;;;;;;;71.57;30.88;;;;;;;1.95;100.00;102450.03;5092237;28;20051;-53
2023/01/27 04:33:38;;;;;;;67.85;31.25;;;;;;;1.95;100.00;102463.66;5092268;28;20380;-52
2023/01/27 04:36:03;;;;;;;71.28;32.10;;;;;;;1.96;100.00;102470.56;5092885;28;20020;-53
2023/01/27 04:38:29;;;;;;;69.38;31.98;;;;;;;1.96;100.00;102465.47;5091980;28;20024;-52
2023/01/27 04:40:54;;;;;;;69.63;31.08;;;;;;;1.96;100.00;102462.94;5092537;28;20103;-53
2023/01/27 04:43:20;;;;;;;74.32;31.52;;;;;;;1.95;100.00;102466.22;5092482;28;20051;-52
2023/01/27 04:45:45;;;;;;;66.60;31.15;;;;;;;1.97;100.00;102479.94;5092061;28;20040;-52
2023/01/27 04:48:11;;;;;;;64.43;30.38;;;;;;;1.99;100.00;102464.84;5092607;28;20024;-53
2023/01/27 04:50:36;;;;;;;58.92;30.33;;;;;;;2.01;100.00;102475.16;5092454;28;20032;-52
2023/01/27 04:53:01;;;;;;;66.80;31.45;;;;;;;2.01;100.00;102470.94;5092222;28;20032;-52
2023/01/27 04:55:27;;;;;;;68.45;31.55;;;;;;;2.02;100.00;102476.94;5092157;28;20032;-52
2023/01/27 04:57:52;;;;;;;67.28;30.60;;;;;;;2.02;100.00;102476.94;5092614;28;20028;-52
2023/01/27 05:00:18;;;;;;;64.47;31.80;;;;;;;2.00;100.00;102479.31;5091757;28;20032;-52
2023/01/27 05:02:44;;;;;;;69.65;32.20;;;;;;;2.00;100.00;102474.25;5094585;28;20036;-53
2023/01/27 05:05:09;;;;;;;71.07;33.00;;;;;;;1.99;100.00;102482.66;5095927;28;20035;-53
2023/01/27 05:07:34;;;;;;;66.95;33.25;;;;;;;1.97;100.00;102485.03;5095711;28;20020;-53
2023/01/27 05:10:00;;;;;;;64.55;33.42;;;;;;;1.97;100.00;102481.59;5096257;28;20045;-53
2023/01/27 05:12:25;;;;;;;66.07;32.30;;;;;;;1.96;100.00;102492.53;5095654;28;20028;-53
2023/01/27 05:14:50;;;;;;;64.45;33.03;;;;;;;1.95;100.00;102486.56;5095849;28;20463;-52
2023/01/27 05:17:15;;;;;;;67.80;31.77;;;;;;;1.97;100.00;102484.16;5096298;28;20093;-53
2023/01/27 05:19:41;;;;;;;62.22;32.35;;;;;;;1.96;100.00;102487.44;5095176;28;20020;-52
2023/01/27 05:22:07;;;;;;;63.97;32.13;;;;;;;1.96;100.00;102493.44;5095944;28;20099;-52
2023/01/27 05:24:32;;;;;;;67.00;32.05;;;;;;;1.98;100.00;102501.19;5095658;28;20124;-53
2023/01/27 05:26:58;;;;;;;65.60;32.42;;;;;;;1.98;100.00;102491.91;5095466;28;20112;-52
2023/01/27 05:29:23;;;;;;;58.42;30.33;;;;;;;2.01;100.00;102496.38;5095526;28;20512;-52
2023/01/27 05:31:48;;;;;;;64.15;32.58;;;;;;;2.01;100.00;102495.50;5095751;28;20022;-52
2023/01/27 05:34:15;;;;;;;58.28;30.63;;;;;;;2.02;100.00;102503.25;5095491;28;20034;-52
2023/01/27 05:36:41;;;;;;;56.95;29.23;;;;;;;2.03;100.00;102504.13;5095466;28;20074;-52
2023/01/27 05:39:09;;;;;;;57.72;30.00;;;;;;;2.06;100.00;102519.69;5095896;28;20016;-52
2023/01/27 05:41:34;;;;;;;49.00;27.92;;;;;;;2.09;100.00;102507.25;5094898;28;20139;-52
2023/01/27 05:44:00;;;;;;;47.55;26.00;;;;;;;2.11;100.00;102509.19;5095309;28;20063;-52
2023/01/27 05:46:28;;;;;;;51.92;26.58;;;;;;;2.13;100.00;102511.84;5095399;28;20353;-52
2023/01/27 05:48:57;;;;;;;46.95;27.55;;;;;;;2.14;100.00;102516.19;5095002;28;20425;-52
2023/01/27 05:51:24;;;;;;;44.67;25.27;;;;;;;2.16;100.00;102511.22;5095128;28;20502;-53
2023/01/27 05:53:50;;;;;;;49.13;26.20;;;;;;;2.17;100.00;102525.75;5095193;28;20062;-53
2023/01/27 05:56:17;;;;;;;46.78;26.00;;;;;;;2.16;100.00;102519.78;5094873;28;20040;-52
2023/01/27 05:58:43;;;;;;;46.58;26.17;;;;;;;2.16;100.00;102517.22;5094766;28;20056;-52
2023/01/27 06:01:11;;;;;;;46.50;26.85;;;;;;;2.14;100.00;102523.81;5095436;28;20107;-53
2023/01/27 06:03:37;;;;;;;46.88;26.92;;;;;;;2.15;100.00;102520.53;5093935;28;20050;-52
2023/01/27 06:06:03;;;;;;;47.80;27.17;;;;;;;2.13;100.00;102522.03;5095320;28;20024;-52
2023/01/27 06:08:30;;;;;;;49.35;28.60;;;;;;;2.14;100.00;102534.00;5094528;28;20111;-53
2023/01/27 06:10:55;;;;;;;48.78;27.77;;;;;;;2.14;100.00;102519.66;5094870;28;20047;-52
2023/01/27 06:13:21;;;;;;;53.33;27.92;;;;;;;2.15;100.00;102525.63;5094524;28;20086;-52
2023/01/27 06:15:47;;;;;;;49.17;27.60;;;;;;;2.13;100.00;102520.41;5094378;28;20394;-52
2023/01/27 06:18:13;;;;;;;49.15;26.73;;;;;;;2.15;100.00;102528.16;5094866;28;20502;-52
2023/01/27 06:20:40;;;;;;;49.78;27.80;;;;;;;2.15;100.00;102533.25;5094570;28;20499;-53
2023/01/27 06:23:06;;;;;;;46.47;26.15;;;;;;;2.17;100.00;102536.84;5094282;28;20085;-52
2023/01/27 06:25:39;;;;;;;52.40;27.40;;;;;;;2.16;100.00;102542.69;5094265;28;20047;-53
2023/01/27 06:28:05;;;;;;;46.80;26.52;;;;;;;2.16;100.00;102541.75;5094906;28;20038;-53
2023/01/27 06:30:33;;;;;;;42.60;24.88;;;;;;;2.18;100.00;102541.13;5093973;28;20024;-52
2023/01/27 06:32:58;;;;;;;46.30;26.45;;;;;;;2.18;100.00;102542.81;5094655;28;20056;-52
2023/01/27 06:35:23;;;;;;;47.40;25.38;;;;;;;2.20;100.00;102548.94;5094523;28;20047;-53
2023/01/27 06:37:50;;;;;;;44.53;24.20;;;;;;;2.21;100.00;102546.53;5093792;28;20035;-53
2023/01/27 06:40:16;;;;;;;46.20;26.08;;;;;;;2.22;100.00;102543.25;5094306;28;20052;-53
2023/01/27 06:42:42;;;;;;;41.58;24.33;;;;;;;2.24;100.00;102540.81;5094357;28;20028;-53
2023/01/27 06:45:09;;;;;;;41.65;24.00;;;;;;;2.25;100.00;102538.41;5093855;28;20494;-52
2023/01/27 06:47:34;;;;;;;42.47;24.40;;;;;;;2.25;100.00;102548.59;5093801;28;20414;-52
2023/01/27 06:50:00;;;;;;;43.67;24.58;;;;;;;2.26;100.00;102544.38;5094523;28;20024;-53
2023/01/27 06:52:25;;;;;;;42.22;23.75;;;;;;;2.25;100.00;102538.41;5093519;28;20020;-52
2023/01/27 06:54:50;;;;;;;38.65;23.00;;;;;;;2.24;100.00;102544.25;5094000;28;20028;-53
2023/01/27 06:57:15;;;;;;;42.13;23.02;;;;;;;2.25;100.00;102542.63;5094437;28;20501;-52
2023/01/27 06:59:41;;;;;;;37.90;21.13;;;;;;;2.24;100.00;102541.72;5093320;28;20027;-52
2023/01/27 07:02:10;;;;;;;36.13;20.88;;;;;;;2.24;100.00;102551.00;5094016;28;20539;-54
2023/01/27 07:04:35;;;;;;;32.92;19.38;;;;;;;2.23;100.00;102545.00;5093759;28;20035;-53
2023/01/27 07:07:01;;;;;;;35.17;18.85;;;;;;;2.25;100.00;102545.16;5093286;28;20028;-52
2023/01/27 07:09:26;;;;;;;34.47;19.85;;;;;;;2.24;100.00;102540.81;5093599;28;20161;-53
2023/01/27 07:11:52;;;;;;;33.42;19.88;;;;;;;2.25;100.00;102543.50;5093485;28;20031;-52
2023/01/27 07:14:17;;;;;;;34.53;19.33;;;;;;;2.26;100.00;102545.31;5093756;28;20028;-53
2023/01/27 07:16:42;;;;;;;29.13;16.75;;;;;;;2.30;100.00;102542.25;5093313;28;20464;-53
2023/01/27 07:19:08;;;;;;;30.52;19.33;;;;;;;2.32;100.00;102551.69;5093316;28;20060;-52
2023/01/27 07:21:33;;;;;;;27.92;16.70;;;;;;;2.34;100.00;102547.63;5093100;28;20028;-52
2023/01/27 07:23:58;;;;;;;27.55;16.83;;;;;;;2.34;100.00;102552.72;5092914;28;20031;-53
2023/01/27 07:26:23;;;;;;;25.95;15.85;;;;;;;2.35;100.00;102554.50;5092965;28;20020;-53
2023/01/27 07:28:49;;;;;;;24.80;15.93;;;;;;;2.35;100.00;102554.50;5093164;28;20043;-52
2023/01/27 07:31:14;;;;;;;24.02;15.23;;;;;;;2.37;100.00;102550.47;5093596;28;20125;-52
2023/01/27 07:33:39;;;;;;;26.23;15.10;;;;;;;2.37;100.00;102558.09;5092654;28;20532;-54
2023/01/27 07:36:05;;;;;;;25.08;15.55;;;;;;;2.37;100.00;102563.19;5093147;28;20016;-53
2023/01/27 07:38:30;;;;;;;23.77;15.05;;;;;;;2.38;100.00;102562.44;5093080;28;20028;-53
2023/01/27 07:40:56;;;;;;;23.42;15.05;;;;;;;2.38;100.00;102562.44;5093006;28;20031;-53
2023/01/27 07:43:23;;;;;;;24.88;16.08;;;;;;;2.40;100.00;102564.38;5093261;28;20116;-52
2023/01/27 07:45:52;;;;;;;24.77;15.60;;;;;;;2.41;100.00;102575.41;5093138;28;20020;-52
2023/01/27 07:48:17;;;;;;;25.27;15.98;;;;;;;2.43;100.00;102568.84;5092718;28;20020;-52
2023/01/27 07:50:43;;;;;;;24.52;15.88;;;;;;;2.44;100.00;102580.78;5092751;28;20051;-52
2023/01/27 07:53:09;;;;;;;26.50;16.25;;;;;;;2.46;100.00;102574.19;5093060;28;20111;-53
2023/01/27 07:55:34;;;;;;;23.73;15.70;;;;;;;2.46;100.00;102571.66;5092306;28;20039;-52
2023/01/27 07:58:00;;;;;;;24.20;15.27;;;;;;;2.47;100.00;102581.06;5093158;28;20028;-52
2023/01/27 08:00:26;;;;;;;28.55;15.73;;;;;;;2.46;100.00;102584.38;5092775;28;20026;-53
2023/01/27 08:02:53;;;;;;;23.77;16.02;;;;;;;2.46;100.00;102582.72;5092017;28;20458;-52
2023/01/27 08:05:19;;;;;;;25.60;16.35;;;;;;;2.46;100.00;102582.72;5092942;28;20035;-53
2023/01/27 08:07:45;;;;;;;29.77;16.45;;;;;;;2.47;100.00;102576.00;5092478;28;20027;-51
2023/01/27 08:10:10;;;;;;;24.35;15.27;;;;;;;2.48;100.00;102582.88;5092296;28;20157;-52
2023/01/27 08:12:35;;;;;;;24.70;15.20;;;;;;;2.49;100.00;102579.53;5092543;28;20024;-52
2023/01/27 08:15:01;;;;;;;27.58;16.55;;;;;;;2.49;100.00;102584.63;5092991;28;20032;-51
2023/01/27 08:17:26;;;;;;;25.48;16.42;;;;;;;2.47;100.00;102586.16;5092096;28;20020;-53
2023/01/27 08:19:52;;;;;;;28.13;16.63;;;;;;;2.49;100.00;102587.19;5093003;28;20114;-51
2023/01/27 08:22:21;;;;;;;26.70;16.45;;;;;;;2.50;100.00;102588.09;5092277;28;20031;-52
2023/01/27 08:24:47;;;;;;;25.92;16.52;;;;;;;2.52;100.00;102594.19;5092056;28;20047;-52
2023/01/27 08:27:13;;;;;;;26.02;15.80;;;;;;;2.53;100.00;102591.81;5092583;28;20379;-53
2023/01/27 08:29:38;;;;;;;26.52;16.17;;;;;;;2.53;100.00;102596.91;5091592;28;20024;-53
2023/01/27 08:32:03;;;;;;;22.90;16.23;;;;;;;2.54;100.00;102595.25;5092430;28;20032;-54
2023/01/27 08:34:29;;;;;;;26.13;15.93;;;;;;;2.55;100.00;102595.38;5092501;28;20050;-54
2023/01/27 08:36:54;;;;;;;25.00;15.60;;;;;;;2.56;100.00;102596.28;5095249;28;20028;-53
2023/01/27 08:39:19;;;;;;;24.92;16.25;;;;;;;2.57;100.00;102591.34;5096590;28;20024;-53
2023/01/27 08:41:45;;;;;;;24.40;16.08;;;;;;;2.58;100.00;102597.31;5096652;28;20020;-53
2023/01/27 08:44:10;;;;;;;25.23;16.17;;;;;;;2.59;100.00;102607.63;5096405;28;20032;-54
2023/01/27 08:46:35;;;;;;;22.90;15.70;;;;;;;2.62;100.00;102605.38;5096187;28;20387;-54
2023/01/27 08:49:01;;;;;;;25.65;15.63;;;;;;;2.63;100.00;102609.72;5096674;28;20024;-54
2023/01/27 08:51:26;;;;;;;27.73;15.93;;;;;;;2.64;100.00;102610.59;5095698;28;20024;-53
2023/01/27 08:53:51;;;;;;;20.70;14.50;;;;;;;2.64;100.00;102615.69;5096532;28;20156;-54
2023/01/27 08:56:17;;;;;;;25.42;15.90;;;;;;;2.64;100.00;102631.84;5096705;28;20032;-53
2023/01/27 08:58:46;;;;;;;23.42;15.52;;;;;;;2.64;100.00;102626.75;5095845;28;20020;-53
2023/01/27 09:01:11;;;;;;;22.80;15.60;;;;;;;2.64;100.00;102636.94;5096599;28;20031;-53
2023/01/27 09:03:37;;;;;;;24.35;14.63;;;;;;;2.64;100.00;102641.13;5095767;28;20407;-54
2023/01/27 09:06:07;;;;;;;24.27;14.63;;;;;;;2.62;100.00;102643.56;5095519;28;20153;-53
2023/01/27 09:08:32;;;;;;;25.45;15.13;;;;;;;2.63;100.00;102650.44;5096356;28;20032;-55
2023/01/27 09:10:58;;;;;;;22.42;13.75;;;;;;;2.63;100.00;102642.81;5096196;28;20020;-54
2023/01/27 09:13:23;;;;;;;23.83;13.73;;;;;;;2.67;100.00;102637.97;5095516;28;20032;-54
2023/01/27 09:15:52;;;;;;;18.58;13.20;;;;;;;2.70;100.00;102638.25;5095859;28;20531;-51
2023/01/27 09:18:18;;;;;;;19.75;13.45;;;;;;;2.74;100.00;102627.59;5091293;28;20104;-52
2023/01/27 09:20:43;;;;;;;22.55;13.10;;;;;;;2.77;100.00;102633.84;5094916;28;20519;-52
2023/01/27 09:23:09;;;;;;;18.38;12.68;;;;;;;2.81;100.00;102629.91;5095801;28;20391;-51
2023/01/27 09:25:34;;;;;;;18.65;12.57;;;;;;;2.87;100.00;102630.47;5095219;28;20052;-51
2023/01/27 09:28:00;;;;;;;17.85;12.25;;;;;;;2.94;100.00;102632.84;5095734;28;20027;-50
2023/01/27 09:30:26;;;;;;;20.70;12.88;;;;;;;3.02;100.00;102640.25;5095669;28;20028;-51
2023/01/27 09:32:52;;;;;;;19.15;12.93;;;;;;;3.10;100.00;102647.81;5095233;28;20020;-51
2023/01/27 09:35:18;;;;;;;20.92;12.95;;;;;;;3.11;100.00;102643.59;5095457;28;20387;-52
2023/01/27 09:37:49;;;;;;;20.95;13.18;;;;;;;3.08;100.00;102651.88;5095602;28;20024;-50
2023/01/27 09:40:30;;;;;;;25.95;14.57;;;;;;;3.10;100.00;102652.03;5095280;28;20034;-52
2023/01/27 09:43:13;;;;;;;20.90;13.15;;;;;;;3.11;100.00;102652.16;5095431;28;20519;-51
2023/01/27 09:46:00;;;;;;;16.52;11.45;;;;;;;3.13;100.00;102655.72;5095223;28;20032;-51
2023/01/27 09:48:40;;;;;;;20.20;12.82;;;;;;;3.07;100.00;102664.47;5093828;28;20035;-50
2023/01/27 09:51:24;;;;;;;18.27;11.57;;;;;;;3.05;100.00;102660.91;5095513;28;20109;-51
2023/01/27 09:54:15;;;;;;;16.15;11.95;;;;;;;3.01;100.00;102671.56;5094549;28;20801;-51
2023/01/27 09:57:10;;;;;;;17.60;10.95;;;;;;;3.00;100.00;102672.34;5095017;28;20020;-54
2023/01/27 10:00:07;;;;;;;20.85;12.68;;;;;;;2.91;100.00;102673.28;5095153;28;20368;-54
2023/01/27 10:02:57;;;;;;;18.90;12.60;;;;;;;2.89;100.00;102679.00;5094287;28;20024;-53
2023/01/27 10:05:43;;;;;;;19.60;12.55;;;;;;;2.86;100.00;102679.63;5095102;28;20383;-54
2023/01/27 10:08:40;;;;;;;17.65;12.18;;;;;;;2.86;100.00;102684.72;5094547;28;20357;-54
2023/01/27 10:11:22;;;;;;;22.45;12.23;;;;;;;2.89;100.00;102679.91;5095104;28;20032;-54
2023/01/27 10:14:20;;;;;;;20.77;11.90;;;;;;;2.88;100.00;102678.13;5094848;28;20024;-54
2023/01/27 10:16:53;;;;;;;15.88;11.98;;;;;;;2.97;100.00;102666.19;5093909;28;20028;-54
2023/01/27 10:19:33;;;;;;;17.02;10.93;;;;;;;3.05;100.00;102671.09;5094799;28;20039;-54
2023/01/27 10:22:29;;;;;;;16.30;11.02;;;;;;;3.15;100.00;102663.53;5094551;28;20381;-54
2023/01/27 10:25:29;;;;;;;17.10;11.60;;;;;;;3.26;100.00;102665.34;5094622;28;20122;-54
2023/01/27 10:27:59;;;;;;;19.25;10.95;;;;;;;3.25;100.00;102665.22;5094965;28;20039;-54
2023/01/27 10:30:36;;;;;;;18.10;11.60;;;;;;;3.34;100.00;102663.47;5094041;28;20028;-54
2023/01/27 10:33:24;;;;;;;18.65;12.07;;;;;;;3.39;100.00;102667.31;5094629;28;20024;-54
2023/01/27 10:35:52;;;;;;;16.02;11.80;;;;;;;3.33;100.00;102661.72;5093884;28;20047;-54
2023/01/27 10:38:41;;;;;;;17.67;12.23;;;;;;;3.41;100.00;102659.84;5094553;28;20027;-54
2023/01/27 10:41:29;;;;;;;17.83;12.18;;;;;;;3.45;100.00;102659.34;5094621;28;20383;-54
2023/01/27 10:44:00;;;;;;;19.98;12.52;;;;;;;3.42;100.00;102664.16;5093453;28;20060;-53
2023/01/27 10:47:00;;;;;;;16.73;11.68;;;;;;;3.42;99.91;102653.94;5094147;28;20039;-53
2023/01/27 10:49:33;;;;;;;18.23;11.80;;;;;;;3.41;100.00;102662.38;5094150;28;20048;-54
2023/01/27 10:52:16;;;;;;;16.70;11.90;;;;;;;3.43;100.00;102660.84;5093654;28;20036;-54
2023/01/27 10:55:01;;;;;;;17.83;12.20;;;;;;;3.54;100.00;102662.69;5094112;28;20058;-54
2023/01/27 10:57:53;;;;;;;15.13;11.00;;;;;;;3.55;99.82;102655.91;5092751;28;20075;-54
2023/01/27 11:00:51;;;;;;;21.13;12.60;;;;;;;3.50;100.00;102655.53;5094034;28;20020;-54
2023/01/27 11:03:25;;;;;;;18.63;12.13;;;;;;;3.46;100.00;102656.03;5093993;28;20055;-54
2023/01/27 11:05:54;;;;;;;16.58;11.15;;;;;;;3.39;100.00;102649.47;5093361;28;20024;-54
2023/01/27 11:08:25;;;;;;;19.20;11.40;;;;;;;3.38;100.00;102667.19;5093985;28;20024;-54
2023/01/27 11:13:38;;;;;;;14.70;10.85;;;;;;;3.29;100.00;102662.16;5093545;28;20035;-54
2023/01/27 11:16:10;;;;;;;16.00;11.07;;;;;;;3.19;99.71;102659.56;5093976;28;20024;-54
2023/01/27 11:18:37;;;;;;;18.38;12.68;;;;;;;3.13;100.00;102659.94;5093079;28;20060;-51
2023/01/27 11:21:05;;;;;;;18.65;12.48;;;;;;;3.11;100.00;102652.16;5093574;28;20031;-52
2023/01/27 11:23:41;;;;;;;17.88;11.45;;;;;;;3.10;100.00;102642.72;5093168;28;20028;-55
2023/01/27 11:26:33;;;;;;;18.13;11.38;;;;;;;3.16;100.00;102651.66;5093076;28;20024;-54
2023/01/27 11:29:23;;;;;;;17.50;12.05;;;;;;;3.15;100.00;102655.88;5093749;28;20024;-50
2023/01/27 11:32:12;;;;;;;18.90;11.90;;;;;;;3.16;100.00;102646.56;5093242;28;20044;-54
2023/01/27 11:34:58;;;;;;;24.73;11.35;;;;;;;3.19;100.00;102650.28;5093260;28;20036;-54
2023/01/27 11:37:24;;;;;;;19.00;12.38;;;;;;;3.28;100.00;102648.56;5093549;28;20039;-54
2023/01/27 11:39:49;;;;;;;18.65;12.35;;;;;;;3.34;100.00;102648.19;5092641;28;20024;-52
2023/01/27 11:42:15;;;;;;;21.23;13.57;;;;;;;3.50;100.00;102645.34;5093119;28;20024;-54
2023/01/27 11:44:42;;;;;;;19.08;13.27;;;;;;;3.67;100.00;102630.59;5093102;28;20467;-54
2023/01/27 11:47:19;;;;;;;17.92;12.10;;;;;;;3.71;100.00;102640.31;5092858;28;20077;-54
2023/01/27 11:49:47;;;;;;;25.35;15.93;;;;;;;3.75;100.00;102632.16;5093133;28;20034;-54
2023/01/27 11:52:16;;;;;;;25.77;15.13;;;;;;;3.79;100.00;102634.22;5093332;28;20032;-54
2023/01/27 11:54:49;;;;;;;20.30;12.57;;;;;;;3.78;99.85;102640.06;5092162;28;20081;-55